Time;durP1;ratioP1;P1;durP2;ratioP2;P2;SDS_P1;SDS_P2;PMS_P1;PMS_P2;Temp;Humidity;BMP_temperature;BMP_pressure;BME280_temperature;BME280_humidity;BME280_pressure;Samples;Min_cycle;Max_cycle;Signal;HPM_P1;HPM_P2
2022/04/18 00:01:59;;;;;;;1.42;1.33;;;;;;;7.19;88.45;99201.66;5111683;28;20438;-55
2022/04/18 00:04:26;;;;;;;1.00;1.00;;;;;;;7.20;88.38;99195.69;5111690;28;20192;-55
2022/04/18 00:06:53;;;;;;;1.20;1.10;;;;;;;7.22;88.43;99191.50;5111948;28;20200;-55
2022/04/18 00:09:20;;;;;;;2.40;1.30;;;;;;;7.20;88.51;99188.03;5111835;28;20577;-55
2022/04/18 00:11:47;;;;;;;1.37;1.27;;;;;;;7.21;88.14;99183.78;5111818;28;20543;-55
2022/04/18 00:14:14;;;;;;;1.93;1.37;;;;;;;7.21;89.00;99186.34;5111435;28;20324;-55
2022/04/18 00:16:42;;;;;;;1.53;1.20;;;;;;;7.18;88.40;99170.94;5111625;28;20186;-56
2022/04/18 00:19:09;;;;;;;1.23;1.23;;;;;;;7.23;89.56;99180.44;5111270;28;20675;-55
2022/04/18 00:21:36;;;;;;;1.00;1.00;;;;;;;7.25;89.01;99181.34;5111493;28;20221;-55
2022/04/18 00:24:03;;;;;;;1.10;1.10;;;;;;;7.30;88.85;99184.03;5111597;28;20557;-56
2022/04/18 00:26:29;;;;;;;1.17;0.90;;;;;;;7.30;88.38;99182.34;5111332;28;20687;-56
2022/04/18 00:28:56;;;;;;;1.30;1.20;;;;;;;7.36;87.93;99173.94;5111549;28;20198;-56
2022/04/18 00:31:23;;;;;;;1.30;1.30;;;;;;;7.29;86.84;99178.03;5111114;28;20191;-56
2022/04/18 00:33:51;;;;;;;1.50;1.40;;;;;;;7.25;88.29;99172.84;5111385;28;20276;-56
2022/04/18 00:36:18;;;;;;;1.17;1.17;;;;;;;7.31;88.76;99176.38;5111545;28;20208;-56
2022/04/18 00:38:45;;;;;;;1.67;1.37;;;;;;;7.31;88.46;99175.50;5111486;28;20189;-56
2022/04/18 00:41:12;;;;;;;1.63;1.33;;;;;;;7.23;88.82;99151.47;5111422;28;20224;-56
2022/04/18 00:43:41;;;;;;;1.60;1.50;;;;;;;7.33;89.10;99166.22;5111198;28;20667;-55
2022/04/18 00:46:08;;;;;;;1.50;1.40;;;;;;;7.33;89.16;99154.31;5111400;28;20711;-56
2022/04/18 00:48:35;;;;;;;1.70;1.60;;;;;;;7.35;88.79;99147.53;5110926;28;20200;-56
2022/04/18 00:51:05;;;;;;;1.87;1.70;;;;;;;7.29;88.74;99149.94;5110956;28;20200;-55
2022/04/18 00:53:32;;;;;;;1.50;1.40;;;;;;;7.39;88.78;99159.53;5110801;28;20193;-56
2022/04/18 00:56:00;;;;;;;1.60;1.50;;;;;;;7.38;87.85;99156.97;5110966;28;20304;-56
2022/04/18 00:58:27;;;;;;;2.00;1.63;;;;;;;7.39;89.01;99151.88;5110301;28;20216;-56
2022/04/18 01:00:54;;;;;;;1.70;1.60;;;;;;;7.42;88.37;99154.50;5110592;28;20227;-56
2022/04/18 01:03:21;;;;;;;1.52;1.42;;;;;;;7.36;88.02;99135.63;5110857;28;20426;-56
2022/04/18 01:05:49;;;;;;;1.70;1.60;;;;;;;7.43;88.83;99145.13;5110658;28;20281;-56
2022/04/18 01:08:18;;;;;;;1.50;1.40;;;;;;;7.46;88.75;99146.09;5110725;28;20283;-56
2022/04/18 01:10:45;;;;;;;1.80;1.70;;;;;;;7.45;87.11;99146.91;5110929;28;20196;-56
2022/04/18 01:13:13;;;;;;;1.90;1.80;;;;;;;7.39;86.50;99139.09;5110813;28;20208;-56
2022/04/18 01:15:40;;;;;;;1.23;1.20;;;;;;;7.39;86.98;99133.97;5110906;28;20674;-56
2022/04/18 01:18:06;;;;;;;1.93;1.73;;;;;;;7.36;87.29;99141.56;5110913;28;20200;-56
2022/04/18 01:20:35;;;;;;;1.90;1.40;;;;;;;7.38;88.07;99139.94;5110645;28;20311;-55
2022/04/18 01:23:06;;;;;;;1.90;1.33;;;;;;;7.34;87.69;99130.47;5110474;28;20209;-55
2022/04/18 01:31:03;;;;;;;0.90;0.90;;;;;;;7.22;86.80;99130.19;5110859;28;20249;-56
2022/04/18 01:33:30;;;;;;;2.80;1.00;;;;;;;7.24;86.82;99123.41;5110834;28;20199;-55
2022/04/18 01:35:57;;;;;;;1.03;1.03;;;;;;;7.19;86.75;99132.66;5110693;28;20246;-56
2022/04/18 01:38:26;;;;;;;0.93;0.93;;;;;;;7.19;86.70;99125.00;5110526;28;20342;-56
2022/04/18 01:40:53;;;;;;;0.90;0.90;;;;;;;7.05;85.97;99108.50;5110465;28;20584;-55
2022/04/18 01:43:20;;;;;;;1.00;1.00;;;;;;;7.11;85.56;99116.31;5110280;28;20280;-55
2022/04/18 01:45:47;;;;;;;1.67;1.57;;;;;;;7.07;86.88;99117.91;5110545;28;20274;-56
2022/04/18 01:48:14;;;;;;;1.20;1.20;;;;;;;7.08;86.88;99117.09;5110291;28;20189;-56
2022/04/18 01:50:40;;;;;;;1.20;1.20;;;;;;;7.04;86.27;99114.41;5110300;28;20190;-55
2022/04/18 01:53:07;;;;;;;1.30;1.20;;;;;;;7.00;85.78;99113.47;5110187;28;20290;-56
2022/04/18 01:55:36;;;;;;;1.20;1.20;;;;;;;7.07;86.76;99115.34;5110316;28;20284;-56
2022/04/18 01:58:05;;;;;;;1.20;1.20;;;;;;;7.07;87.77;99107.69;5110297;28;20193;-56
2022/04/18 02:00:33;;;;;;;1.10;1.10;;;;;;;7.11;87.54;99106.91;5109978;28;20642;-55
2022/04/18 02:03:00;;;;;;;1.10;1.10;;;;;;;7.19;86.38;99096.91;5109114;28;20446;-56
2022/04/18 02:05:27;;;;;;;1.30;1.20;;;;;;;7.27;85.43;99100.50;5110010;28;20288;-55
2022/04/18 02:07:54;;;;;;;1.73;1.13;;;;;;;7.31;85.47;99097.16;5110318;28;20231;-55
2022/04/18 02:10:21;;;;;;;1.20;1.20;;;;;;;7.26;84.83;99095.34;5111986;28;20573;-56
2022/04/18 02:12:49;;;;;;;1.20;1.20;;;;;;;7.25;85.33;99096.19;5114024;28;20280;-56
2022/04/18 02:15:16;;;;;;;1.17;1.17;;;;;;;7.24;85.01;99102.97;5113628;28;20229;-55
2022/04/18 02:17:43;;;;;;;1.67;1.57;;;;;;;7.28;84.65;99091.97;5113685;28;20193;-56
2022/04/18 02:20:11;;;;;;;1.53;1.43;;;;;;;7.31;84.87;99092.06;5113716;28;20288;-56
2022/04/18 02:22:38;;;;;;;1.33;1.33;;;;;;;7.31;84.57;99091.19;5113872;28;20189;-56
2022/04/18 02:25:06;;;;;;;1.70;1.50;;;;;;;7.25;85.14;99088.53;5113576;28;20177;-56
2022/04/18 02:27:33;;;;;;;1.60;1.50;;;;;;;7.26;85.49;99091.09;5113420;28;20700;-55
2022/04/18 02:30:01;;;;;;;1.10;1.10;;;;;;;7.29;86.12;99092.84;5113569;28;20198;-56
2022/04/18 02:35:12;;;;;;;1.57;1.47;;;;;;;7.07;85.67;99069.38;5113810;28;20665;-56
2022/04/18 02:37:39;;;;;;;1.23;1.23;;;;;;;7.24;86.21;99092.75;5113515;28;20660;-55
2022/04/18 02:40:07;;;;;;;1.40;1.30;;;;;;;7.21;86.73;99102.91;5113382;28;20192;-55
2022/04/18 02:42:34;;;;;;;1.57;1.47;;;;;;;7.16;87.27;99104.50;5113511;28;20231;-56
2022/04/18 02:45:02;;;;;;;1.70;1.60;;;;;;;7.03;87.91;99102.50;5113307;28;20200;-56
2022/04/18 02:47:29;;;;;;;1.70;1.60;;;;;;;7.00;88.56;99094.75;5113278;28;20197;-56
2022/04/18 02:49:56;;;;;;;1.67;1.57;;;;;;;6.97;88.47;99094.69;5113240;28;20203;-55
2022/04/18 02:52:23;;;;;;;1.70;1.60;;;;;;;6.94;89.77;99092.91;5113255;28;20195;-56
2022/04/18 02:54:50;;;;;;;1.63;1.53;;;;;;;6.82;89.88;99084.06;5113288;28;20189;-56
2022/04/18 02:57:17;;;;;;;2.00;1.90;;;;;;;6.84;89.96;99090.09;5113183;28;20674;-56
2022/04/18 02:59:43;;;;;;;2.20;1.93;;;;;;;6.84;90.78;99087.56;5113336;28;20193;-55
2022/04/18 03:02:12;;;;;;;2.43;2.23;;;;;;;6.80;91.35;99086.59;5113200;28;20232;-56
2022/04/18 03:04:38;;;;;;;3.47;2.00;;;;;;;6.74;90.81;99088.13;5113209;28;20550;-55
2022/04/18 03:07:06;;;;;;;1.70;1.60;;;;;;;6.77;91.06;99095.88;5112752;28;20188;-56
2022/04/18 03:09:33;;;;;;;1.77;1.67;;;;;;;6.81;91.75;99093.41;5112878;28;20192;-55
2022/04/18 03:12:02;;;;;;;1.57;1.47;;;;;;;6.67;90.67;99087.13;5112844;28;20274;-56
2022/04/18 03:14:29;;;;;;;1.70;1.60;;;;;;;6.71;91.53;99088.06;5112618;28;20226;-56
2022/04/18 03:16:56;;;;;;;2.27;2.17;;;;;;;6.73;92.10;99092.38;5112526;28;20285;-55
2022/04/18 03:19:25;;;;;;;1.70;1.60;;;;;;;6.70;91.64;99091.44;5112541;28;20396;-56
2022/04/18 03:21:52;;;;;;;2.63;2.43;;;;;;;6.69;91.22;99092.28;5102336;28;20222;-55
2022/04/18 03:24:19;;;;;;;2.60;2.40;;;;;;;6.71;92.08;99088.94;5090270;28;20280;-55
2022/04/18 03:26:46;;;;;;;2.37;2.23;;;;;;;6.79;92.51;99092.53;5091572;28;20201;-56
2022/04/18 03:29:13;;;;;;;2.60;2.40;;;;;;;6.87;93.22;99096.13;5091712;28;20271;-56
2022/04/18 03:31:40;;;;;;;2.60;2.40;;;;;;;6.83;92.03;99080.72;5091799;28;20204;-56
2022/04/18 03:34:07;;;;;;;2.60;2.40;;;;;;;6.90;92.66;99090.22;5092071;28;20176;-56
2022/04/18 03:42:04;;;;;;;3.20;2.90;;;;;;;6.95;93.27;99079.28;5099910;28;20261;-62
2022/04/18 03:44:31;;;;;;;2.87;2.60;;;;;;;6.98;92.50;99089.59;5091276;28;20202;-62
2022/04/18 03:46:58;;;;;;;3.90;2.70;;;;;;;7.01;92.47;99084.56;5091787;28;20192;-63
2022/04/18 03:49:25;;;;;;;3.13;2.85;;;;;;;6.77;91.38;99050.78;5091295;28;20535;-62
2022/04/18 03:51:54;;;;;;;2.50;2.30;;;;;;;6.93;91.53;99075.84;5091549;28;20198;-62
2022/04/18 03:54:21;;;;;;;2.80;2.60;;;;;;;6.99;90.70;99081.13;5091860;28;20210;-62
2022/04/18 03:56:47;;;;;;;3.47;2.70;;;;;;;6.97;90.58;99087.00;5091684;28;20279;-63
2022/04/18 03:59:14;;;;;;;2.37;2.17;;;;;;;7.02;91.32;99075.22;5091202;28;20676;-62
2022/04/18 04:01:41;;;;;;;3.50;3.20;;;;;;;7.02;90.55;99086.28;5091297;28;20316;-62
2022/04/18 04:04:08;;;;;;;2.93;2.70;;;;;;;7.04;90.41;99082.09;5090746;28;20200;-62
2022/04/18 04:06:35;;;;;;;3.00;2.80;;;;;;;7.07;90.35;99083.84;5090305;28;20436;-62
2022/04/18 04:09:03;;;;;;;3.17;2.53;;;;;;;6.99;90.06;99091.31;5091017;28;20196;-62
2022/04/18 04:11:31;;;;;;;2.77;2.50;;;;;;;7.01;90.12;99092.22;5091484;28;20220;-62
2022/04/18 04:13:58;;;;;;;3.73;3.07;;;;;;;7.00;89.97;99097.31;5090992;28;20685;-61
2022/04/18 04:16:25;;;;;;;3.00;2.80;;;;;;;7.08;91.02;99095.78;5090894;28;20204;-61
2022/04/18 04:18:51;;;;;;;3.33;3.07;;;;;;;7.08;90.91;99089.00;5091537;28;20268;-61
2022/04/18 04:21:18;;;;;;;4.00;2.63;;;;;;;7.13;91.33;99091.66;5091218;28;20226;-61
2022/04/18 04:23:45;;;;;;;4.73;2.53;;;;;;;7.10;90.09;99091.56;5091353;28;20200;-61
2022/04/18 04:26:13;;;;;;;3.47;3.17;;;;;;;7.19;90.47;99083.25;5090346;28;20432;-62
2022/04/18 04:28:40;;;;;;;3.40;3.03;;;;;;;7.25;90.11;99085.97;5090943;28;20201;-65
2022/04/18 04:31:07;;;;;;;4.20;3.70;;;;;;;7.34;90.11;99081.03;5090557;28;20443;-62
2022/04/18 04:33:34;;;;;;;3.40;3.10;;;;;;;7.40;89.73;99084.59;5089799;28;20292;-63
2022/04/18 04:36:01;;;;;;;3.33;3.03;;;;;;;7.51;89.24;99089.94;5088763;28;20581;-62
2022/04/18 04:38:28;;;;;;;4.00;3.60;;;;;;;7.51;89.12;99092.50;5089867;28;20738;-63
2022/04/18 04:40:55;;;;;;;3.27;3.00;;;;;;;7.51;89.22;99084.84;5090678;28;20196;-63
2022/04/18 04:43:28;;;;;;;3.90;3.60;;;;;;;7.63;89.78;99082.56;5088869;28;20892;-62
2022/04/18 04:45:55;;;;;;;3.90;3.53;;;;;;;7.71;88.83;99078.47;5090158;28;20255;-63
2022/04/18 04:48:22;;;;;;;3.87;3.57;;;;;;;7.71;88.23;99074.22;5090034;28;20542;-63
2022/04/18 04:50:49;;;;;;;4.03;3.73;;;;;;;7.72;87.60;99073.34;5089866;28;20271;-62
2022/04/18 04:53:16;;;;;;;3.00;2.70;;;;;;;7.70;87.95;99087.81;5089766;28;20173;-63
2022/04/18 04:55:44;;;;;;;3.40;2.87;;;;;;;7.65;87.23;99089.41;5089814;28;20213;-63
2022/04/18 04:58:11;;;;;;;3.20;2.90;;;;;;;7.58;87.38;99094.38;5082957;28;20285;-63
2022/04/18 05:00:40;;;;;;;3.22;3.00;;;;;;;7.62;87.40;99093.59;5069581;28;20521;-62
2022/04/18 05:03:07;;;;;;;3.40;3.10;;;;;;;7.67;87.49;99099.66;5077386;28;20229;-62
2022/04/18 05:05:34;;;;;;;3.00;2.80;;;;;;;7.70;87.15;99100.59;5090507;28;20201;-63
2022/04/18 05:08:01;;;;;;;4.10;3.80;;;;;;;7.69;87.04;99100.59;5090017;28;20286;-64
2022/04/18 05:10:28;;;;;;;3.33;3.03;;;;;;;7.70;87.86;99102.28;5090386;28;20276;-62
2022/04/18 05:12:55;;;;;;;2.97;2.77;;;;;;;7.65;86.59;99117.53;5090287;28;20197;-63
2022/04/18 05:15:22;;;;;;;3.53;2.70;;;;;;;7.66;86.86;99098.78;5089910;28;20222;-63
2022/04/18 05:17:50;;;;;;;3.23;3.03;;;;;;;7.71;87.42;99110.00;5089715;28;20193;-61
2022/04/18 05:20:17;;;;;;;4.07;3.43;;;;;;;7.66;86.44;99101.34;5090368;28;20238;-61
2022/04/18 05:22:44;;;;;;;4.67;4.10;;;;;;;7.68;86.98;99102.28;5090050;28;20312;-62
2022/04/18 05:25:11;;;;;;;4.20;3.90;;;;;;;7.75;87.02;99102.41;5089714;28;20968;-61
2022/04/18 05:27:38;;;;;;;4.63;4.30;;;;;;;7.75;87.00;99117.75;5090120;28;20204;-63
2022/04/18 05:30:06;;;;;;;4.87;4.47;;;;;;;7.77;86.89;99101.59;5090139;28;20200;-62
2022/04/18 05:32:33;;;;;;;9.10;4.63;;;;;;;7.84;87.34;99103.44;5090093;28;20656;-62
2022/04/18 05:35:02;;;;;;;4.33;3.93;;;;;;;7.92;88.00;99103.59;5089735;28;20289;-62
2022/04/18 05:37:28;;;;;;;4.47;4.07;;;;;;;7.86;87.64;99106.03;5089695;28;20231;-62
2022/04/18 05:39:55;;;;;;;4.20;3.87;;;;;;;7.92;87.83;99108.72;5089510;28;20192;-62
2022/04/18 05:42:25;;;;;;;4.63;4.23;;;;;;;8.01;87.74;99108.91;5089460;28;20212;-62
2022/04/18 05:44:52;;;;;;;4.80;4.40;;;;;;;8.10;87.76;99111.66;5089609;28;20440;-62
2022/04/18 05:47:19;;;;;;;4.30;3.90;;;;;;;8.21;86.67;99120.41;5093924;28;20193;-61
2022/04/18 05:49:46;;;;;;;3.80;3.50;;;;;;;8.18;85.36;99121.22;5093721;28;20193;-57
2022/04/18 05:52:15;;;;;;;3.97;3.67;;;;;;;8.22;85.71;99117.00;5093643;28;20190;-57
2022/04/18 05:54:42;;;;;;;4.13;3.77;;;;;;;8.24;85.16;99118.75;5093498;28;20246;-57
2022/04/18 05:57:09;;;;;;;4.27;3.87;;;;;;;8.31;85.92;99122.31;5093527;28;20213;-61
2022/04/18 05:59:36;;;;;;;4.20;3.07;;;;;;;8.32;85.13;99119.78;5093552;28;20207;-62
2022/04/18 06:02:03;;;;;;;3.03;2.83;;;;;;;8.31;84.61;99124.88;5093268;28;20222;-62
2022/04/18 06:04:30;;;;;;;4.43;3.90;;;;;;;8.36;84.47;99122.41;5093664;28;20247;-62
2022/04/18 06:06:57;;;;;;;3.03;2.70;;;;;;;8.30;84.70;99125.72;5093729;28;20219;-62
2022/04/18 06:09:25;;;;;;;3.13;2.80;;;;;;;8.32;84.01;99124.91;5093578;28;20201;-56
2022/04/18 06:11:52;;;;;;;4.47;3.10;;;;;;;8.40;84.83;99124.19;5093638;28;20187;-57
2022/04/18 06:14:19;;;;;;;3.57;3.27;;;;;;;8.42;85.06;99120.84;5092248;28;20237;-56
2022/04/18 06:16:46;;;;;;;3.50;3.17;;;;;;;8.44;85.52;99123.41;5092910;28;20246;-56
2022/04/18 06:19:13;;;;;;;4.23;3.83;;;;;;;8.50;84.55;99132.06;5092884;28;20202;-56
2022/04/18 06:21:40;;;;;;;3.83;3.63;;;;;;;8.53;84.67;99136.38;5092696;28;20197;-57
2022/04/18 06:24:07;;;;;;;3.60;3.30;;;;;;;8.50;83.74;99133.78;5092994;28;20686;-57
2022/04/18 06:26:35;;;;;;;4.33;3.93;;;;;;;8.38;84.70;99134.41;5092780;28;20199;-57
2022/04/18 06:29:02;;;;;;;3.33;3.03;;;;;;;8.44;84.54;99133.66;5103990;28;20193;-58
2022/04/18 06:31:29;;;;;;;4.37;3.30;;;;;;;8.46;83.58;99143.06;5096777;28;20235;-56
2022/04/18 06:33:56;;;;;;;3.67;3.00;;;;;;;8.53;83.40;99144.06;5099834;28;20202;-57
2022/04/18 06:36:22;;;;;;;4.60;4.20;;;;;;;8.55;83.07;99142.38;5113045;27;20258;-58
2022/04/18 06:38:49;;;;;;;4.00;3.60;;;;;;;8.57;84.34;99127.94;5108247;28;20198;-62
2022/04/18 06:41:16;;;;;;;4.53;2.60;;;;;;;8.67;83.98;99147.75;5113473;28;20737;-61
2022/04/18 06:43:44;;;;;;;3.10;2.90;;;;;;;8.63;82.49;99141.69;5091480;28;20214;-61
2022/04/18 06:46:11;;;;;;;4.07;3.67;;;;;;;8.70;83.28;99145.25;5091782;28;20939;-62
2022/04/18 06:48:38;;;;;;;4.00;3.60;;;;;;;8.88;82.94;99148.13;5092288;28;20191;-61
2022/04/18 06:51:05;;;;;;;3.20;3.00;;;;;;;8.88;82.96;99146.41;5092212;28;20274;-61
2022/04/18 06:53:32;;;;;;;4.90;3.50;;;;;;;8.92;83.24;99147.34;5090458;28;20278;-62
2022/04/18 06:58:45;;;;;;;2.83;2.47;;;;;;;8.85;82.23;99148.06;5092258;28;20204;-62
2022/04/18 07:01:12;;;;;;;3.40;3.00;;;;;;;8.79;80.43;99153.06;5091971;28;20203;-61
2022/04/18 07:03:39;;;;;;;2.30;2.10;;;;;;;8.83;79.40;99154.88;5092012;28;20224;-61
2022/04/18 07:06:05;;;;;;;1.97;1.87;;;;;;;8.83;78.13;99158.28;5092247;28;20197;-61
2022/04/18 07:08:32;;;;;;;3.30;2.05;;;;;;;8.87;79.28;99162.63;5091005;28;20436;-61
2022/04/18 07:10:59;;;;;;;2.57;2.40;;;;;;;8.98;78.94;99160.28;5092144;28;20194;-61
2022/04/18 07:13:26;;;;;;;2.60;2.40;;;;;;;8.95;78.01;99161.91;5092190;28;20281;-60
2022/04/18 07:15:55;;;;;;;2.60;2.40;;;;;;;8.97;78.38;99165.34;5092120;28;20648;-62
2022/04/18 07:18:21;;;;;;;2.40;2.20;;;;;;;8.96;78.93;99164.47;5090696;28;20285;-61
2022/04/18 07:20:48;;;;;;;2.53;2.33;;;;;;;8.99;77.72;99172.22;5091527;28;20200;-61
2022/04/18 07:23:15;;;;;;;2.20;2.10;;;;;;;9.01;77.72;99173.09;5091576;28;20215;-62
2022/04/18 07:25:42;;;;;;;2.80;2.60;;;;;;;9.04;77.65;99175.72;5091502;28;20676;-62
2022/04/18 07:28:09;;;;;;;2.83;2.30;;;;;;;8.97;78.62;99173.91;5091437;28;20305;-62
2022/04/18 07:30:36;;;;;;;3.00;2.63;;;;;;;8.89;78.85;99171.22;5092207;28;20236;-61
2022/04/18 07:33:04;;;;;;;3.20;3.00;;;;;;;8.94;79.20;99178.09;5091930;28;20269;-62
2022/04/18 07:35:32;;;;;;;5.67;2.60;;;;;;;8.88;78.72;99169.47;5091642;28;20205;-61
2022/04/18 07:40:43;;;;;;;3.30;3.00;;;;;;;8.86;77.88;99178.84;5091581;28;20201;-59
2022/04/18 07:43:10;;;;;;;2.63;2.37;;;;;;;9.00;78.78;99180.78;5091349;28;20226;-59
2022/04/18 07:45:38;;;;;;;3.30;3.00;;;;;;;9.09;78.43;99179.22;5091872;28;20194;-61
2022/04/18 07:48:07;;;;;;;3.47;3.17;;;;;;;9.19;78.78;99185.38;5091375;28;20396;-59
2022/04/18 07:53:19;;;;;;;3.20;2.90;;;;;;;9.31;78.07;99183.88;5091343;28;20674;-61
2022/04/18 07:55:47;;;;;;;3.37;3.07;;;;;;;9.33;76.49;99186.47;5091123;28;20200;-60
2022/04/18 07:58:13;;;;;;;6.17;3.60;;;;;;;9.37;76.57;99195.91;5091263;28;20191;-61
2022/04/18 08:00:40;;;;;;;3.73;3.40;;;;;;;9.43;76.78;99193.47;5091353;28;20195;-62
2022/04/18 08:03:09;;;;;;;3.60;3.20;;;;;;;9.37;77.65;99193.34;5091170;28;20218;-61
2022/04/18 08:05:36;;;;;;;4.00;3.03;;;;;;;9.31;76.89;99189.00;5091031;28;20209;-61
2022/04/18 08:08:02;;;;;;;3.43;2.90;;;;;;;9.44;77.32;99196.06;5090901;28;20195;-61
2022/04/18 08:10:29;;;;;;;3.93;3.17;;;;;;;9.42;76.26;99197.72;5091386;28;20194;-60
2022/04/18 08:12:56;;;;;;;2.77;2.50;;;;;;;9.47;77.99;99198.69;5091159;28;20197;-60
2022/04/18 08:15:23;;;;;;;3.30;3.10;;;;;;;9.41;77.21;99202.84;5090846;28;20225;-61
2022/04/18 08:17:50;;;;;;;3.00;2.80;;;;;;;9.38;76.99;99205.34;5090832;28;20192;-61
2022/04/18 08:20:18;;;;;;;3.57;2.60;;;;;;;9.37;76.24;99206.16;5090731;28;20654;-61
2022/04/18 08:22:45;;;;;;;3.30;3.00;;;;;;;9.32;76.73;99208.66;5089792;28;20218;-61
2022/04/18 08:25:13;;;;;;;3.13;2.83;;;;;;;9.17;76.40;99205.00;5090869;28;20187;-60
2022/04/18 08:27:40;;;;;;;2.40;2.20;;;;;;;9.14;76.32;99210.06;5090756;28;20298;-60
2022/04/18 08:30:08;;;;;;;2.80;2.60;;;;;;;9.13;77.20;99216.03;5088718;28;20198;-60
2022/04/18 08:32:36;;;;;;;4.00;3.67;;;;;;;9.10;77.96;99211.72;5090240;28;20191;-60
2022/04/18 08:35:04;;;;;;;2.63;2.40;;;;;;;8.95;78.10;99214.03;5087642;28;20278;-61
2022/04/18 08:37:33;;;;;;;2.83;2.43;;;;;;;8.92;77.61;99208.84;5090359;28;20211;-61
2022/04/18 08:40:00;;;;;;;2.60;2.40;;;;;;;8.87;76.25;99211.28;5090517;28;20687;-61
2022/04/18 08:42:28;;;;;;;2.73;2.53;;;;;;;8.87;77.21;99213.84;5090506;28;20194;-61
2022/04/18 08:44:55;;;;;;;4.37;2.80;;;;;;;8.84;77.22;99213.78;5090507;28;20191;-61
2022/04/18 08:52:54;;;;;;;2.70;2.50;;;;;;;8.87;77.11;99218.13;5090240;28;20197;-61
2022/04/18 08:55:21;;;;;;;3.37;2.60;;;;;;;8.77;77.14;99226.47;5090068;28;20284;-60
2022/04/18 08:57:48;;;;;;;2.90;2.70;;;;;;;8.72;76.39;99223.84;5090190;28;20197;-61
2022/04/18 09:00:15;;;;;;;2.60;2.40;;;;;;;8.78;76.59;99223.94;5090156;28;20198;-60
2022/04/18 09:02:42;;;;;;;4.83;3.30;;;;;;;8.68;77.25;99224.59;5089856;28;20307;-61
2022/04/18 09:05:11;;;;;;;3.83;3.50;;;;;;;8.80;78.26;99222.28;5088851;28;20922;-60
2022/04/18 09:07:41;;;;;;;3.07;2.60;;;;;;;8.90;76.29;99223.28;5089700;28;20197;-61
2022/04/18 09:10:11;;;;;;;3.27;2.97;;;;;;;8.98;77.13;99224.31;5089663;28;20284;-61
2022/04/18 09:12:43;;;;;;;4.43;3.00;;;;;;;8.99;76.80;99217.47;5086759;28;20666;-61
2022/04/18 09:15:10;;;;;;;3.83;3.43;;;;;;;9.05;77.82;99220.16;5089017;28;20735;-61
2022/04/18 09:17:38;;;;;;;3.00;2.70;;;;;;;9.04;77.16;99224.41;5089438;28;20197;-61
2022/04/18 09:20:09;;;;;;;3.70;3.40;;;;;;;8.98;77.78;99226.88;5088984;28;20281;-61
2022/04/18 09:22:43;;;;;;;3.60;3.30;;;;;;;8.82;78.59;99229.97;5089319;28;20190;-60
2022/04/18 09:25:16;;;;;;;4.77;3.93;;;;;;;8.72;80.04;99231.50;5089873;28;20243;-60
2022/04/18 09:27:53;;;;;;;4.20;3.83;;;;;;;8.51;81.51;99223.44;5087113;28;20200;-60
2022/04/18 09:30:20;;;;;;;4.63;3.67;;;;;;;8.53;81.53;99232.00;5086403;28;20224;-61
2022/04/18 09:32:57;;;;;;;4.03;3.60;;;;;;;8.37;82.10;99239.31;5089451;28;20193;-61
2022/04/18 09:35:26;;;;;;;5.10;4.63;;;;;;;8.52;84.26;99220.00;5069671;28;20197;-61
2022/04/18 09:37:54;;;;;;;5.67;4.90;;;;;;;8.74;85.12;99229.84;5069635;28;20195;-60
2022/04/18 09:40:25;;;;;;;5.90;4.03;;;;;;;8.97;84.24;99231.97;5069364;28;20649;-61
2022/04/18 09:42:54;;;;;;;4.78;4.38;;;;;;;9.14;83.59;99221.19;5076367;28;20444;-61
2022/04/18 09:45:21;;;;;;;4.90;4.40;;;;;;;9.13;82.63;99208.34;5109245;28;20211;-60
2022/04/18 09:47:55;;;;;;;4.07;3.67;;;;;;;9.30;80.51;99241.13;5096810;28;20194;-61
2022/04/18 09:53:08;;;;;;;6.37;4.43;;;;;;;9.48;80.67;99235.41;5069481;28;20251;-60
2022/04/18 09:55:36;;;;;;;6.03;5.43;;;;;;;9.54;79.84;99234.66;5072018;28;21008;-60
2022/04/18 09:58:04;;;;;;;3.90;3.57;;;;;;;9.57;77.28;99233.00;5092967;28;20217;-61
2022/04/18 10:00:31;;;;;;;3.60;3.30;;;;;;;9.68;77.76;99228.91;5089025;28;20203;-61
2022/04/18 10:03:00;;;;;;;3.60;3.30;;;;;;;9.69;77.59;99228.09;5088070;28;20441;-61
2022/04/18 10:05:27;;;;;;;4.17;3.77;;;;;;;9.85;77.06;99242.88;5088467;28;20714;-61
2022/04/18 10:07:56;;;;;;;4.80;4.40;;;;;;;9.85;78.09;99237.72;5088985;28;20292;-61
2022/04/18 10:10:24;;;;;;;3.90;3.60;;;;;;;9.87;76.38;99242.88;5085881;28;20205;-61
2022/04/18 10:12:52;;;;;;;4.70;4.30;;;;;;;9.90;77.54;99251.50;5088536;28;20195;-60
2022/04/18 10:15:21;;;;;;;5.17;4.60;;;;;;;9.79;77.52;99249.59;5088487;28;20239;-61
2022/04/18 10:17:48;;;;;;;5.07;4.67;;;;;;;9.68;75.93;99241.72;5088629;28;21066;-61
2022/04/18 10:20:28;;;;;;;5.60;5.10;;;;;;;9.55;76.25;99218.44;5089140;28;20202;-60
2022/04/18 10:23:14;;;;;;;5.87;5.37;;;;;;;9.72;78.32;99238.41;5088220;28;20197;-61
2022/04/18 10:26:35;;;;;;;7.33;5.90;;;;;;;9.68;76.77;99240.88;5087081;28;20281;-62
2022/04/18 10:29:10;;;;;;;6.67;5.57;;;;;;;9.51;76.86;99240.59;5051952;28;20194;-61
2022/04/18 10:31:40;;;;;;;5.83;5.30;;;;;;;9.50;76.30;99239.72;5090249;28;20244;-61
2022/04/18 10:34:07;;;;;;;5.80;4.67;;;;;;;9.49;74.98;99227.75;5092236;28;20292;-60
2022/04/18 10:36:35;;;;;;;6.20;5.60;;;;;;;9.49;76.07;99234.59;5092469;28;20201;-61
2022/04/18 10:39:04;;;;;;;6.70;6.10;;;;;;;9.42;78.01;99227.66;5092431;28;20193;-61
2022/04/18 10:41:36;;;;;;;7.53;6.83;;;;;;;9.52;78.08;99237.22;5092648;28;20198;-61
2022/04/18 10:44:08;;;;;;;7.30;6.70;;;;;;;9.60;79.11;99224.50;5092091;28;20439;-61
2022/04/18 10:46:35;;;;;;;4.40;4.00;;;;;;;9.73;76.32;99227.28;5092818;28;20210;-61
2022/04/18 10:49:04;;;;;;;5.20;4.70;;;;;;;9.70;77.44;99228.91;5092738;28;20197;-61
2022/04/18 10:51:35;;;;;;;3.27;2.97;;;;;;;9.82;75.88;99223.97;5092613;28;20538;-61
2022/04/18 10:54:07;;;;;;;3.30;3.10;;;;;;;9.81;74.52;99225.69;5085460;28;20199;-61
2022/04/18 10:56:54;;;;;;;6.53;4.83;;;;;;;10.07;74.91;99223.50;5072235;28;20214;-61
2022/04/18 10:59:25;;;;;;;5.00;4.60;;;;;;;10.20;76.85;99220.28;5074447;28;20206;-61
2022/04/18 11:01:53;;;;;;;5.00;4.60;;;;;;;10.36;76.84;99226.47;5091508;28;20523;-61
2022/04/18 11:04:25;;;;;;;4.00;3.70;;;;;;;10.52;74.19;99226.69;5092300;28;20479;-60
2022/04/18 11:06:58;;;;;;;5.63;4.90;;;;;;;10.61;74.31;99223.34;5071882;28;20287;-61
2022/04/18 11:09:26;;;;;;;4.63;4.23;;;;;;;10.60;74.58;99217.34;5071919;28;20677;-61
2022/04/18 11:11:56;;;;;;;4.10;3.80;;;;;;;10.60;74.38;99221.66;5071863;28;20197;-60
2022/04/18 11:14:26;;;;;;;3.70;3.40;;;;;;;10.63;74.67;99219.09;5072078;28;20629;-61
2022/04/18 11:17:02;;;;;;;4.53;4.13;;;;;;;10.57;74.16;99227.63;5071837;28;20278;-61
2022/04/18 11:19:30;;;;;;;5.43;4.67;;;;;;;10.69;75.91;99224.31;5071432;28;20196;-60
2022/04/18 11:22:08;;;;;;;5.20;4.70;;;;;;;10.83;73.94;99221.88;5071638;28;20203;-61
2022/04/18 11:24:40;;;;;;;4.13;3.83;;;;;;;10.80;75.52;99227.84;5071707;28;20285;-61
2022/04/18 11:27:09;;;;;;;3.50;3.23;;;;;;;10.70;71.92;99214.91;5071741;28;20215;-61
2022/04/18 11:29:39;;;;;;;2.97;2.70;;;;;;;10.43;72.04;99223.16;5071582;28;20194;-61
2022/04/18 11:32:07;;;;;;;2.90;2.70;;;;;;;10.27;72.56;99210.97;5071434;28;20317;-61
2022/04/18 11:34:36;;;;;;;4.03;3.73;;;;;;;10.38;74.05;99217.94;5071221;28;20187;-61
2022/04/18 11:37:08;;;;;;;3.87;2.67;;;;;;;10.37;75.14;99212.78;5071332;28;20582;-61
2022/04/18 11:39:43;;;;;;;3.13;2.93;;;;;;;10.17;74.40;99215.09;5071516;28;20373;-61
2022/04/18 11:42:14;;;;;;;3.63;3.33;;;;;;;10.09;76.46;99207.28;5070843;28;20207;-61
2022/04/18 11:44:43;;;;;;;3.90;3.60;;;;;;;10.16;77.22;99209.97;5070304;28;20453;-60
2022/04/18 11:47:11;;;;;;;3.27;3.07;;;;;;;10.03;76.51;99217.44;5071591;28;20287;-61
2022/04/18 11:49:39;;;;;;;3.10;2.90;;;;;;;9.80;76.65;99210.28;5071284;28;20199;-61
2022/04/18 11:52:06;;;;;;;3.33;3.03;;;;;;;9.74;76.95;99205.91;5071163;28;20665;-61
2022/04/18 11:54:33;;;;;;;3.93;3.60;;;;;;;9.98;77.06;99203.69;5071510;28;20187;-60
2022/04/18 11:57:02;;;;;;;3.33;3.00;;;;;;;10.24;77.02;99203.22;5071153;28;20194;-61
2022/04/18 11:59:29;;;;;;;5.07;3.20;;;;;;;10.37;75.81;99194.81;5071226;28;20205;-60
2022/04/18 12:07:31;;;;;;;3.33;3.03;;;;;;;10.17;74.52;99209.09;5070870;28;20235;-60
2022/04/18 12:09:58;;;;;;;3.03;2.83;;;;;;;10.37;75.43;99189.69;5071152;28;20550;-60
2022/04/18 12:12:32;;;;;;;3.10;2.90;;;;;;;10.74;76.52;99189.25;5070540;28;20551;-61
2022/04/18 12:15:05;;;;;;;3.40;3.13;;;;;;;10.92;75.24;99193.72;5070782;28;20291;-60
2022/04/18 12:17:35;;;;;;;3.97;3.67;;;;;;;10.94;75.49;99198.03;5070789;28;20187;-61
2022/04/18 12:20:20;;;;;;;5.07;3.53;;;;;;;10.90;74.97;99187.72;5070926;28;20214;-61
2022/04/18 12:22:51;;;;;;;2.93;2.73;;;;;;;10.72;73.29;99190.94;5070734;28;20194;-61